createdAt,value
2022-12-20T00:02:18.641Z,6.60
2022-12-20T00:04:48.365Z,7.32
2022-12-20T00:07:18.172Z,7.55
2022-12-20T00:09:47.463Z,5.88
2022-12-20T00:12:17.636Z,7.15
2022-12-20T00:14:47.452Z,7.45
2022-12-20T00:17:19.176Z,6.72
2022-12-20T00:19:48.639Z,7.07
2022-12-20T00:22:18.646Z,6.03
2022-12-20T00:24:47.946Z,4.95
2022-12-20T00:27:17.711Z,5.57
2022-12-20T00:29:47.096Z,5.25
2022-12-20T00:32:18.280Z,5.28
2022-12-20T00:34:47.574Z,5.10
2022-12-20T00:37:17.543Z,4.93
2022-12-20T00:39:46.865Z,4.60
2022-12-20T00:42:17.165Z,4.93
2022-12-20T00:44:46.478Z,5.40
2022-12-20T00:47:17.900Z,5.22
2022-12-20T00:49:47.251Z,4.57
2022-12-20T00:52:16.886Z,4.75
2022-12-20T00:54:46.188Z,4.43
2022-12-20T00:57:15.977Z,5.07
2022-12-20T00:59:45.329Z,5.40
2022-12-20T01:02:15.280Z,4.93
2022-12-20T01:04:46.169Z,4.55
2022-12-20T01:09:44.919Z,4.88
2022-12-20T01:12:14.926Z,4.20
2022-12-20T01:14:44.226Z,4.53
2022-12-20T01:17:14.155Z,4.22
2022-12-20T01:19:44.935Z,4.03
2022-12-20T01:22:14.560Z,3.75
2022-12-20T01:24:43.976Z,4.40
2022-12-20T01:27:14.096Z,5.03
2022-12-20T01:29:43.404Z,4.90
2022-12-20T01:32:13.470Z,3.83
2022-12-20T01:34:43.046Z,5.40
2022-12-20T01:37:14.474Z,4.90
2022-12-20T01:42:16.741Z,4.95
2022-12-20T01:45:02.252Z,5.68
2022-12-20T01:47:35.553Z,5.15
2022-12-20T01:50:06.721Z,5.40
2022-12-20T01:52:42.146Z,5.90
2022-12-20T01:55:14.842Z,7.53
2022-12-20T01:57:48.606Z,8.45
2022-12-20T02:00:18.959Z,9.30
2022-12-20T02:05:21.490Z,9.20
2022-12-20T02:07:55.497Z,9.73
2022-12-20T02:10:29.164Z,9.90
2022-12-20T02:13:08.335Z,10.38
2022-12-20T02:15:49.247Z,10.82
2022-12-20T02:18:23.955Z,12.73
2022-12-20T02:21:23.631Z,11.05
2022-12-20T02:24:21.765Z,11.85
2022-12-20T02:27:27.139Z,13.18
2022-12-20T02:30:14.747Z,12.45
2022-12-20T02:32:50.765Z,13.20
2022-12-20T02:35:24.645Z,12.63
2022-12-20T02:37:56.546Z,15.32
2022-12-20T02:40:29.645Z,14.15
2022-12-20T02:43:03.269Z,14.23
2022-12-20T02:45:36.776Z,13.25
2022-12-20T02:48:09.765Z,14.68
2022-12-20T02:50:42.696Z,14.48
2022-12-20T02:53:14.326Z,15.50
2022-12-20T02:55:50.188Z,15.55
2022-12-20T02:58:28.313Z,15.40
2022-12-20T03:01:04.783Z,14.85
2022-12-20T03:03:35.340Z,16.20
2022-12-20T03:06:05.503Z,16.55
2022-12-20T03:08:34.966Z,18.38
2022-12-20T03:11:04.666Z,14.75
2022-12-20T03:13:34.092Z,15.35
2022-12-20T03:16:05.747Z,17.43
2022-12-20T03:18:35.028Z,15.60
2022-12-20T03:21:05.101Z,15.65
2022-12-20T03:23:34.918Z,17.27
2022-12-20T03:26:04.612Z,16.50
2022-12-20T03:28:34.668Z,16.13
2022-12-20T03:31:06.174Z,19.25
2022-12-20T03:36:05.852Z,15.82
2022-12-20T03:38:35.155Z,17.60
2022-12-20T03:41:04.832Z,17.25
2022-12-20T03:43:34.240Z,18.13
2022-12-20T03:46:05.997Z,16.50
2022-12-20T03:51:04.778Z,16.73
2022-12-20T03:53:34.670Z,17.38
2022-12-20T03:56:04.343Z,18.20
2022-12-20T03:58:34.047Z,20.10
2022-12-20T04:01:17.559Z,19.55
2022-12-20T04:03:47.172Z,17.55
2022-12-20T04:06:18.239Z,20.50
2022-12-20T04:08:47.924Z,19.38
2022-12-20T04:11:17.789Z,19.23
2022-12-20T04:13:47.671Z,18.58
2022-12-20T04:16:21.023Z,18.63
2022-12-20T04:18:50.540Z,16.90
2022-12-20T04:21:25.004Z,18.38
2022-12-20T04:23:54.411Z,18.73
2022-12-20T04:26:24.459Z,18.48
2022-12-20T04:28:54.199Z,19.80
2022-12-20T04:31:25.413Z,20.17
2022-12-20T04:33:55.484Z,17.88
2022-12-20T04:36:25.368Z,18.27
2022-12-20T04:38:55.381Z,20.80
2022-12-20T04:41:27.271Z,18.92
2022-12-20T04:43:58.166Z,20.60
2022-12-20T04:46:29.426Z,20.60
2022-12-20T04:48:59.807Z,20.85
2022-12-20T04:53:58.355Z,18.42
2022-12-20T04:56:30.581Z,18.60
2022-12-20T04:59:00.726Z,19.65
2022-12-20T05:01:31.980Z,18.52
2022-12-20T05:04:01.419Z,20.13
2022-12-20T05:06:31.272Z,18.02
2022-12-20T05:09:00.648Z,19.13
2022-12-20T05:11:30.930Z,17.58
2022-12-20T05:14:00.352Z,17.70
2022-12-20T05:16:31.603Z,17.00
2022-12-20T05:19:03.588Z,17.35
2022-12-20T05:21:50.586Z,17.83
2022-12-20T05:24:37.463Z,17.83
2022-12-20T05:27:07.363Z,16.42
2022-12-20T05:29:36.620Z,18.55
2022-12-20T05:32:08.087Z,16.17
2022-12-20T05:37:07.138Z,18.40
2022-12-20T05:39:36.398Z,19.40
2022-12-20T05:42:06.348Z,19.98
2022-12-20T05:44:35.813Z,19.75
2022-12-20T05:47:07.061Z,20.60
2022-12-20T05:49:36.741Z,19.85
2022-12-20T05:52:06.797Z,18.80
2022-12-20T05:54:36.094Z,19.58
2022-12-20T05:57:06.205Z,19.98
2022-12-20T05:59:35.637Z,20.42
2022-12-20T06:02:06.877Z,23.73
2022-12-20T06:07:06.675Z,18.13
2022-12-20T06:09:35.944Z,21.13
2022-12-20T06:12:06.225Z,20.35
2022-12-20T06:14:35.583Z,22.15
2022-12-20T06:17:06.989Z,22.25
2022-12-20T06:22:05.965Z,21.67
2022-12-20T06:24:35.404Z,23.05
2022-12-20T06:27:07.295Z,22.63
2022-12-20T06:29:37.972Z,22.20
2022-12-20T06:32:09.513Z,24.75
2022-12-20T06:34:38.866Z,22.00
2022-12-20T06:37:08.716Z,23.13
2022-12-20T06:39:37.972Z,24.13
2022-12-20T06:42:08.866Z,23.02
2022-12-20T06:44:38.284Z,23.45
2022-12-20T06:47:09.861Z,24.50
2022-12-20T06:49:39.160Z,25.05
2022-12-20T06:52:08.926Z,25.50
2022-12-20T06:54:38.290Z,24.20
2022-12-20T06:57:08.347Z,23.23
2022-12-20T06:59:37.785Z,22.77
2022-12-20T07:02:09.283Z,24.30
2022-12-20T07:04:39.462Z,23.67
2022-12-20T07:07:09.271Z,25.25
2022-12-20T07:09:41.580Z,24.13
2022-12-20T07:12:11.798Z,25.23
2022-12-20T07:14:41.237Z,25.15
2022-12-20T07:17:13.941Z,25.73
2022-12-20T07:19:50.339Z,23.08
2022-12-20T07:22:21.136Z,24.95
2022-12-20T07:24:50.597Z,24.27
2022-12-20T07:27:20.851Z,23.90
2022-12-20T07:29:50.106Z,23.38
2022-12-20T07:32:21.407Z,24.25
2022-12-20T07:37:20.245Z,23.77
2022-12-20T07:39:49.545Z,23.83
2022-12-20T07:42:19.792Z,24.02
2022-12-20T07:44:49.233Z,21.98
2022-12-20T07:47:18.888Z,22.17
2022-12-20T07:49:50.807Z,24.08
2022-12-20T07:52:25.163Z,25.95
2022-12-20T07:55:00.153Z,26.08
2022-12-20T07:57:33.811Z,24.52
2022-12-20T08:00:05.183Z,25.15
2022-12-20T08:02:41.332Z,24.73
2022-12-20T08:05:13.810Z,27.27
2022-12-20T08:07:44.846Z,24.92
2022-12-20T08:10:16.379Z,25.70
2022-12-20T08:12:47.783Z,25.27
2022-12-20T08:17:46.695Z,23.98
2022-12-20T08:20:17.929Z,22.63
2022-12-20T08:22:47.806Z,22.10
2022-12-20T08:25:17.342Z,21.35
2022-12-20T08:27:47.270Z,19.52
2022-12-20T08:30:17.239Z,21.05
2022-12-20T08:32:47.064Z,22.75
2022-12-20T08:35:18.005Z,20.70
2022-12-20T08:37:47.717Z,21.48
2022-12-20T08:40:17.331Z,22.23
2022-12-20T08:42:47.827Z,19.63
2022-12-20T08:45:19.230Z,19.58
2022-12-20T08:47:49.373Z,21.02
2022-12-20T08:50:20.744Z,20.13
2022-12-20T08:52:50.397Z,19.85
2022-12-20T08:55:24.569Z,20.50
2022-12-20T08:57:57.564Z,20.70
2022-12-20T09:00:26.821Z,21.55
2022-12-20T09:02:57.474Z,20.55
2022-12-20T09:05:28.572Z,19.05
2022-12-20T09:07:58.295Z,20.55
2022-12-20T09:10:27.603Z,20.30
2022-12-20T09:12:57.273Z,22.00
2022-12-20T09:15:28.306Z,18.63
2022-12-20T09:17:58.593Z,22.55
2022-12-20T09:20:30.187Z,19.13
2022-12-20T09:23:01.325Z,18.75
2022-12-20T09:25:30.886Z,19.65
2022-12-20T09:28:00.557Z,21.13
2022-12-20T09:30:29.958Z,20.60
2022-12-20T09:33:10.106Z,21.25
2022-12-20T09:35:46.559Z,21.27
2022-12-20T09:38:16.635Z,20.48
2022-12-20T09:40:48.726Z,20.73
2022-12-20T09:43:19.890Z,20.35
2022-12-20T09:45:52.328Z,19.80
2022-12-20T09:48:25.536Z,18.40
2022-12-20T09:51:07.405Z,20.50
2022-12-20T09:53:49.676Z,16.05
2022-12-20T09:56:26.977Z,18.88
2022-12-20T09:59:08.102Z,18.27
2022-12-20T10:01:40.049Z,17.50
2022-12-20T10:04:25.252Z,17.92
2022-12-20T10:07:17.719Z,19.08
2022-12-20T10:10:16.004Z,19.05
2022-12-20T10:12:53.746Z,17.90
2022-12-20T10:15:28.834Z,18.30
2022-12-20T10:18:21.095Z,18.70
2022-12-20T10:21:01.142Z,18.63
2022-12-20T10:23:37.355Z,18.95
2022-12-20T10:26:11.235Z,18.83
2022-12-20T10:28:41.268Z,18.27
2022-12-20T10:31:15.321Z,18.02
2022-12-20T10:33:45.539Z,19.90
2022-12-20T10:36:24.359Z,18.85
2022-12-20T10:38:57.154Z,18.88
2022-12-20T10:41:28.688Z,20.08
2022-12-20T10:44:02.444Z,20.13
2022-12-20T10:46:41.316Z,19.90
2022-12-20T10:49:34.208Z,19.95
2022-12-20T10:52:06.388Z,19.45
2022-12-20T10:54:39.494Z,20.65
2022-12-20T10:57:20.403Z,20.77
2022-12-20T10:59:54.425Z,19.85
2022-12-20T11:02:36.974Z,19.05
2022-12-20T11:05:24.311Z,19.45
2022-12-20T11:10:49.211Z,18.92
2022-12-20T11:13:26.116Z,22.08
2022-12-20T11:16:01.720Z,19.40
2022-12-20T11:18:41.958Z,19.25
2022-12-20T11:21:27.860Z,22.20
2022-12-20T11:24:07.706Z,19.48
2022-12-20T11:26:52.444Z,20.48
2022-12-20T11:29:48.716Z,18.45
2022-12-20T11:32:30.745Z,19.00
2022-12-20T11:35:11.118Z,16.90
2022-12-20T11:37:51.244Z,17.83
2022-12-20T11:40:32.409Z,17.83
2022-12-20T11:43:29.670Z,17.55
2022-12-20T11:46:18.487Z,18.38
2022-12-20T11:49:03.507Z,16.67
2022-12-20T11:51:39.187Z,18.17
2022-12-20T11:54:15.093Z,17.85
2022-12-20T11:56:48.343Z,17.83
2022-12-20T11:59:24.027Z,16.85
2022-12-20T12:01:59.611Z,18.98
2022-12-20T12:04:32.963Z,19.33
2022-12-20T12:07:09.215Z,18.10
2022-12-20T12:09:42.497Z,17.48
2022-12-20T12:12:18.964Z,18.38
2022-12-20T12:14:56.735Z,19.42
2022-12-20T12:17:31.297Z,19.63
2022-12-20T12:20:17.620Z,19.08
2022-12-20T12:22:51.319Z,18.52
2022-12-20T12:25:21.921Z,20.67
2022-12-20T12:30:22.938Z,17.77
2022-12-20T12:32:57.631Z,19.27
2022-12-20T12:35:53.836Z,17.02
2022-12-20T12:39:04.477Z,18.33
2022-12-20T12:42:09.599Z,18.38
2022-12-20T12:44:43.934Z,18.17
2022-12-20T12:47:19.024Z,18.27
2022-12-20T12:49:52.433Z,16.13
2022-12-20T12:52:46.402Z,16.98
2022-12-20T12:55:45.122Z,17.25
2022-12-20T12:58:33.142Z,17.33
2022-12-20T13:01:05.914Z,17.73
2022-12-20T13:04:08.181Z,18.38
2022-12-20T13:07:26.114Z,16.63
2022-12-20T13:09:55.674Z,15.60
2022-12-20T13:12:59.242Z,20.42
2022-12-20T13:16:08.296Z,16.30
2022-12-20T13:18:38.173Z,18.83
2022-12-20T13:21:37.078Z,17.00
2022-12-20T13:24:57.200Z,15.23
2022-12-20T13:27:36.271Z,15.70
2022-12-20T13:30:29.767Z,15.13
2022-12-20T13:33:24.476Z,16.35
2022-12-20T13:36:03.563Z,16.05
2022-12-20T13:39:05.471Z,15.77
2022-12-20T13:41:39.013Z,15.73
2022-12-20T13:44:45.873Z,16.25
2022-12-20T13:47:33.019Z,16.80
2022-12-20T13:50:03.766Z,16.67
2022-12-20T13:52:35.932Z,16.35
2022-12-20T13:55:18.003Z,14.93
2022-12-20T13:57:47.985Z,16.05
2022-12-20T14:00:19.595Z,15.77
2022-12-20T14:02:49.589Z,17.33
2022-12-20T14:05:22.515Z,15.55
2022-12-20T14:07:58.099Z,14.63
2022-12-20T14:10:31.378Z,15.68
2022-12-20T14:13:01.526Z,15.50
2022-12-20T14:15:33.405Z,15.93
2022-12-20T14:18:08.372Z,15.70
2022-12-20T14:20:39.327Z,15.23
2022-12-20T14:23:15.317Z,15.57
2022-12-20T14:25:49.670Z,15.82
2022-12-20T14:28:29.399Z,17.23
2022-12-20T14:31:01.442Z,15.88
2022-12-20T14:33:36.089Z,14.98
2022-12-20T14:36:19.450Z,15.43
2022-12-20T14:38:51.260Z,16.10
2022-12-20T14:41:36.682Z,15.57
2022-12-20T14:44:17.943Z,15.93
2022-12-20T14:46:51.972Z,17.45
2022-12-20T14:49:27.514Z,16.73
2022-12-20T14:52:09.484Z,15.32
2022-12-20T14:57:46.749Z,16.58
2022-12-20T15:00:23.563Z,15.93
2022-12-20T15:03:01.268Z,15.90
2022-12-20T15:05:49.797Z,16.45
2022-12-20T15:08:22.025Z,16.15
2022-12-20T15:11:01.456Z,16.83
2022-12-20T15:13:38.359Z,15.90
2022-12-20T15:16:15.621Z,17.17
2022-12-20T15:18:45.495Z,17.83
2022-12-20T15:21:17.329Z,17.63
2022-12-20T15:23:49.445Z,15.85
2022-12-20T15:26:20.787Z,16.50
2022-12-20T15:28:51.601Z,16.40
2022-12-20T15:31:30.755Z,17.65
2022-12-20T15:34:02.882Z,17.00
2022-12-20T15:36:34.239Z,17.35
2022-12-20T15:41:45.358Z,18.58
2022-12-20T15:44:18.910Z,16.40
2022-12-20T15:46:49.188Z,17.17
2022-12-20T15:49:20.012Z,17.48
2022-12-20T15:51:51.500Z,16.73
2022-12-20T15:54:27.838Z,18.58
2022-12-20T15:56:59.668Z,17.65
2022-12-20T16:02:24.705Z,18.50
2022-12-20T16:04:54.715Z,18.63
2022-12-20T16:07:25.162Z,17.73
2022-12-20T16:09:54.601Z,16.65
2022-12-20T16:12:27.329Z,18.05
2022-12-20T16:14:58.090Z,18.85
2022-12-20T16:17:27.802Z,16.67
2022-12-20T16:19:57.175Z,17.58
2022-12-20T16:22:27.346Z,19.38
2022-12-20T16:24:56.906Z,19.58
2022-12-20T16:27:26.668Z,19.15
2022-12-20T16:29:57.664Z,19.98
2022-12-20T16:32:27.351Z,20.25
2022-12-20T16:34:56.646Z,18.85
2022-12-20T16:37:26.482Z,20.55
2022-12-20T16:39:57.027Z,18.27
2022-12-20T16:42:26.927Z,19.25
2022-12-20T16:44:58.087Z,20.95
2022-12-20T16:47:28.623Z,20.23
2022-12-20T16:49:57.979Z,20.30
2022-12-20T16:52:27.673Z,22.80
2022-12-20T16:54:57.186Z,20.35
2022-12-20T16:57:27.438Z,19.90
2022-12-20T16:59:58.198Z,21.42
2022-12-20T17:02:30.622Z,20.80
2022-12-20T17:05:00.966Z,18.83
2022-12-20T17:07:33.180Z,21.27
2022-12-20T17:10:12.877Z,20.98
2022-12-20T17:12:42.624Z,19.92
2022-12-20T17:15:20.598Z,18.88
2022-12-20T17:17:51.004Z,21.67
2022-12-20T17:20:21.944Z,21.48
2022-12-20T17:25:42.205Z,20.60
2022-12-20T17:28:12.016Z,20.00
2022-12-20T17:30:43.444Z,20.60
2022-12-20T17:33:16.744Z,19.35
2022-12-20T17:35:46.087Z,18.75
2022-12-20T17:38:15.923Z,21.40
2022-12-20T17:40:45.351Z,20.02
2022-12-20T17:43:15.503Z,21.57
2022-12-20T17:45:47.432Z,19.10
2022-12-20T17:48:17.138Z,22.33
2022-12-20T17:50:46.445Z,21.52
2022-12-20T17:53:16.091Z,19.85
2022-12-20T17:55:45.375Z,20.10
2022-12-20T17:58:16.367Z,22.52
2022-12-20T18:00:47.604Z,20.33
2022-12-20T18:03:53.408Z,20.08
2022-12-20T18:06:08.482Z,18.08
2022-12-20T18:08:38.255Z,20.63
2022-12-20T18:11:07.872Z,19.40
2022-12-20T18:13:38.295Z,20.38
2022-12-20T18:16:10.619Z,21.90
2022-12-20T18:18:40.649Z,21.10
2022-12-20T18:21:11.886Z,20.85
2022-12-20T18:23:42.656Z,19.30
2022-12-20T18:26:14.158Z,21.60
2022-12-20T18:28:46.118Z,20.13
2022-12-20T18:31:19.408Z,19.58
2022-12-20T18:33:55.614Z,20.75
2022-12-20T18:36:28.911Z,19.65
2022-12-20T18:39:00.274Z,19.83
2022-12-20T18:44:01.818Z,19.67
2022-12-20T18:46:33.019Z,20.73
2022-12-20T18:49:03.393Z,18.58
2022-12-20T18:51:36.923Z,19.58
2022-12-20T18:54:07.716Z,21.70
2022-12-20T18:56:38.678Z,20.65
2022-12-20T18:59:12.700Z,21.85
2022-12-20T19:01:44.648Z,23.88
2022-12-20T19:04:19.277Z,20.77
2022-12-20T19:06:52.047Z,21.33
2022-12-20T19:09:21.870Z,23.52
2022-12-20T19:11:56.673Z,23.60
2022-12-20T19:14:27.423Z,26.23
2022-12-20T19:16:58.263Z,25.15
2022-12-20T19:19:28.891Z,26.08
2022-12-20T19:21:58.267Z,23.52
2022-12-20T19:24:27.942Z,23.80
2022-12-20T19:26:57.890Z,21.55
2022-12-20T19:29:27.697Z,22.80
2022-12-20T19:31:58.484Z,22.17
2022-12-20T19:34:28.221Z,21.83
2022-12-20T19:36:57.544Z,21.33
2022-12-20T19:39:29.072Z,21.98
2022-12-20T19:42:23.011Z,22.80
2022-12-20T19:44:49.920Z,21.85
2022-12-20T19:47:20.785Z,22.58
2022-12-20T19:49:50.827Z,21.85
2022-12-20T19:52:26.440Z,19.88
2022-12-20T19:54:57.991Z,20.88
2022-12-20T19:57:27.294Z,22.42
2022-12-20T19:59:57.668Z,21.58
2022-12-20T20:02:28.961Z,21.08
2022-12-20T20:04:59.260Z,21.17
2022-12-20T20:07:28.670Z,21.98
2022-12-20T20:09:58.359Z,20.48
2022-12-20T20:12:27.767Z,24.70
2022-12-20T20:14:57.636Z,25.50
2022-12-20T20:17:28.572Z,24.92
2022-12-20T20:19:58.242Z,24.70
2022-12-20T20:22:27.816Z,25.98
2022-12-20T20:24:58.156Z,26.63
2022-12-20T20:27:27.849Z,25.83
2022-12-20T20:29:57.671Z,23.85
2022-12-20T20:32:28.436Z,23.00
2022-12-20T20:34:58.330Z,24.05
2022-12-20T20:37:27.844Z,22.95
2022-12-20T20:39:57.674Z,22.95
2022-12-20T20:42:27.100Z,25.42
2022-12-20T20:44:56.786Z,23.52
2022-12-20T20:47:26.089Z,20.70
2022-12-20T20:49:57.239Z,22.92
2022-12-20T20:52:26.681Z,22.38
2022-12-20T20:54:56.501Z,22.00
2022-12-20T20:57:25.803Z,20.75
2022-12-20T20:59:55.790Z,21.55
2022-12-20T21:02:25.834Z,22.23
2022-12-20T21:05:47.214Z,20.55
2022-12-20T21:07:46.956Z,22.27
2022-12-20T21:10:16.873Z,20.85
2022-12-20T21:12:46.463Z,22.35
2022-12-20T21:15:24.340Z,20.67
2022-12-20T21:17:54.220Z,22.30
2022-12-20T21:20:26.567Z,21.58
2022-12-20T21:22:57.561Z,21.45
2022-12-20T21:25:27.274Z,22.13
2022-12-20T21:27:57.390Z,20.85
2022-12-20T21:30:27.806Z,20.40
2022-12-20T21:32:57.148Z,19.13
2022-12-20T21:35:29.028Z,20.45
2022-12-20T21:37:58.500Z,21.38
2022-12-20T21:40:28.122Z,20.60
2022-12-20T21:42:57.618Z,20.77
2022-12-20T21:45:27.759Z,22.80
2022-12-20T21:48:02.739Z,18.20
2022-12-20T21:50:34.391Z,23.45
2022-12-20T21:53:03.827Z,21.20
2022-12-20T21:55:33.615Z,22.60
2022-12-20T21:58:02.926Z,22.20
2022-12-20T22:00:32.945Z,21.60
2022-12-20T22:03:02.412Z,20.45
2022-12-20T22:05:33.735Z,21.08
2022-12-20T22:08:03.059Z,21.35
2022-12-20T22:10:32.747Z,20.10
2022-12-20T22:13:02.031Z,22.60
2022-12-20T22:15:32.702Z,21.63
2022-12-20T22:18:01.976Z,20.00
2022-12-20T22:20:31.770Z,19.73
2022-12-20T22:23:02.726Z,19.40
2022-12-20T22:25:32.815Z,21.15
2022-12-20T22:28:02.110Z,21.33
2022-12-20T22:30:32.266Z,21.67
2022-12-20T22:33:01.626Z,20.90
2022-12-20T22:35:31.256Z,20.67
2022-12-20T22:38:02.348Z,21.55
2022-12-20T22:40:32.195Z,20.92
2022-12-20T22:43:01.615Z,20.85
2022-12-20T22:45:31.432Z,20.90
2022-12-20T22:48:00.753Z,20.85
2022-12-20T22:50:30.503Z,19.77
2022-12-20T22:53:02.099Z,20.83
2022-12-20T22:55:31.899Z,21.38
2022-12-20T22:58:01.216Z,20.52
2022-12-20T23:00:30.895Z,21.52
2022-12-20T23:03:00.358Z,20.15
2022-12-20T23:05:30.336Z,22.13
2022-12-20T23:07:59.791Z,21.70
2022-12-20T23:10:47.979Z,22.63
2022-12-20T23:13:34.334Z,21.38
2022-12-20T23:16:04.169Z,20.02
2022-12-20T23:18:33.745Z,21.60
2022-12-20T23:21:20.569Z,23.40
2022-12-20T23:23:55.733Z,21.95
2022-12-20T23:26:27.532Z,20.05
2022-12-20T23:31:26.692Z,22.10
2022-12-20T23:33:55.981Z,21.10
2022-12-20T23:36:25.689Z,22.45
2022-12-20T23:38:55.195Z,21.27
2022-12-20T23:41:25.636Z,21.45
2022-12-20T23:43:56.610Z,20.55
2022-12-20T23:46:27.373Z,21.77
2022-12-20T23:48:56.879Z,18.92
2022-12-20T23:51:26.644Z,22.65
2022-12-20T23:53:56.332Z,20.48
2022-12-20T23:56:26.131Z,22.23
2022-12-20T23:58:58.003Z,21.73
